METAR Data
IDs: Format: Raw Decoded Include TAF

Data at: 1103 UTC 26 Sep 2018

KMTV 261057Z AUTO 00000KT 5SM BR CLR 16/16 A3010 RMK AO2
KMTV 261036Z AUTO 00000KT 5SM BR CLR 16/16 A3010 RMK AO2
KMTV 260936Z AUTO 00000KT 1 1/4SM BR OVC002 16/16 A3010 RMK AO2
KMTV 260916Z AUTO 00000KT 1/2SM FG OVC002 16/16 A3010 RMK AO2
KMTV 260856Z AUTO 00000KT 3/4SM BR OVC002 16/16 A3011 RMK AO2
KMTV 260838Z AUTO 00000KT 3SM BR OVC002 16/16 A3012 RMK AO2
KMTV 260817Z AUTO 00000KT 1/2SM FG OVC002 16/16 A3012 RMK AO2
KMTV 260756Z AUTO 00000KT 1SM BR OVC002 17/17 A3012 RMK AO2
KMTV 260736Z AUTO 00000KT 1SM BR OVC002 17/17 A3012 RMK AO2
KMTV 260717Z AUTO 00000KT 1 1/4SM BR OVC002 17/17 A3013 RMK AO2
KMTV 260656Z AUTO 00000KT 3/4SM FG OVC002 17/17 A3015 RMK AO2
KMTV 260636Z AUTO 00000KT 1/4SM FG OVC002 17/17 A3015 RMK AO2
KMTV 260556Z AUTO 30003KT 1/4SM FG OVC002 17/17 A3015 RMK AO2
KMTV 260536Z AUTO 00000KT 1/2SM FG OVC002 17/17 A3015 RMK AO2
KMTV 260517Z AUTO 00000KT 4SM BR OVC002 17/17 A3015 RMK AO2
KMTV 260456Z AUTO 00000KT 3/4SM BR OVC002 17/17 A3016 RMK AO2
KMTV 260437Z AUTO 00000KT 3/4SM BR OVC002 18/18 A3017 RMK AO2
KMTV 260417Z AUTO 00000KT 1 1/2SM BR SCT002 18/18 A3017 RMK AO2
KMTV 260356Z AUTO 00000KT 5SM CLR 18/18 A3017 RMK AO2
KMTV 260336Z AUTO 00000KT 5SM BR CLR 18/18 A3018 RMK AO2
KMTV 260316Z AUTO 00000KT 5SM BR CLR 18/18 A3019 RMK AO2
KMTV 260257Z AUTO 00000KT 7SM BR CLR 19/19 A3020 RMK AO2
KMTV 260237Z AUTO 00000KT 5SM BR CLR 18/18 A3019 RMK AO2
KMTV 260217Z AUTO 00000KT 5SM BR CLR 18/18 A3019 RMK AO2
KMTV 260156Z AUTO 00000KT 1 3/4SM BR VV007 19/19 A3020 RMK AO2
KMTV 260137Z AUTO 00000KT 5SM BR CLR 19/19 A3020 RMK AO2
KMTV 260117Z AUTO 00000KT 10SM CLR 19/19 A3020 RMK AO2
KMTV 260057Z AUTO 00000KT 3SM BR CLR 19/19 A3020 RMK AO2
KMTV 260037Z AUTO 00000KT 4SM BR CLR 19/19 A3020 RMK AO2
KMTV 260017Z AUTO 00000KT 7SM CLR 20/20 A3019 RMK AO2
KMTV 252356Z AUTO 00000KT 7SM CLR 21/21 A3018 RMK AO2
KMTV 252336Z AUTO 00000KT 10SM CLR 21/21 A3018 RMK AO2
KMTV 252316Z AUTO 00000KT 10SM SCT039 22/21 A3018 RMK AO2
KMTV 252256Z AUTO 00000KT 10SM BKN039 22/21 A3018 RMK AO2
KMTV 252237Z AUTO 00000KT 10SM SCT039 23/21 A3018 RMK AO2
KMTV 252216Z AUTO 00000KT 10SM SCT027 BKN035 24/21 A3018 RMK AO2
KMTV 252156Z AUTO 00000KT 10SM BKN027 BKN034 BKN041 26/20 A3018 RMK AO2
KMTV 252136Z AUTO 00000KT 10SM SCT029 BKN036 26/20 A3018 RMK AO2
KMTV 252117Z AUTO 00000KT 10SM BKN032 BKN039 26/20 A3019 RMK AO2
KMTV 252056Z AUTO 00000KT 10SM SCT028 SCT034 26/20 A3019 RMK AO2
KMTV 252037Z AUTO 00000KT 10SM SCT036 25/20 A3020 RMK AO2 LTG DSNT SE
KMTV 252016Z AUTO 00000KT 10SM SCT026 OVC034 25/20 A3020 RMK AO2
KMTV 251956Z AUTO 00000KT 10SM SCT026 OVC032 25/20 A3022 RMK AO2
KMTV 251916Z AUTO 25003KT 10SM SCT024 BKN029 26/20 A3023 RMK AO2
KMTV 251857Z AUTO 30003KT 10SM BKN022 OVC029 25/21 A3024 RMK AO2
KMTV 251836Z AUTO 00000KT 10SM SCT015 OVC024 24/21 A3024 RMK AO2
KMTV 251817Z AUTO 00000KT 10SM SCT013 BKN023 OVC028 24/21 A3025 RMK AO2
KMTV 251756Z AUTO 00000KT 10SM SCT015 OVC024 24/21 A3026 RMK AO2
KMTV 251737Z AUTO 00000KT 10SM SCT009 BKN015 OVC022 23/20 A3026 RMK AO2
KMTV 251716Z AUTO 00000KT 10SM BKN009 OVC015 23/21 A3027 RMK AO2
KMTV 251656Z AUTO 00000KT 10SM OVC009 22/21 A3028 RMK AO2
KMTV 251637Z AUTO 00000KT 10SM OVC007 21/21 A3028 RMK AO2
KMTV 251616Z AUTO 00000KT 4SM BR OVC005 21/21 A3029 RMK AO2
KMTV 251556Z AUTO 00000KT 1 3/4SM BR OVC005 21/20 A3029 RMK AO2
KMTV 251536Z AUTO 00000KT 2 1/2SM BR OVC005 20/20 A3030 RMK AO2
KMTV 251517Z AUTO 00000KT 2SM BR OVC003 20/20 A3030 RMK AO2
KMTV 251456Z AUTO 00000KT 2SM BR OVC003 20/20 A3031 RMK AO2 LTG DSNT SE
KMTV 251437Z AUTO 00000KT 3SM BR OVC003 20/20 A3031 RMK AO2 LTG DSNT SE
KMTV 251416Z AUTO 00000KT 1 1/4SM BR OVC003 19/19 A3031 RMK AO2
KMTV 251357Z AUTO 00000KT 1 3/4SM BR OVC003 19/19 A3031 RMK AO2
KMTV 251336Z AUTO 00000KT 1 1/2SM BR OVC003 19/19 A3030 RMK AO2 LTG DSNT SE
KMTV 251256Z AUTO 00000KT 1SM BR OVC003 19/19 A3028 RMK AO2
KMTV 251236Z AUTO 00000KT 1 1/4SM BR OVC003 18/18 A3028 RMK AO2
KMTV 251217Z AUTO 00000KT 1 1/4SM BR OVC003 18/18 A3028 RMK AO2
KMTV 251156Z AUTO 35003KT 1SM BR OVC003 18/18 A3027 RMK AO2
KMTV 251137Z AUTO 00000KT 3/4SM BR OVC003 18/18 A3027 RMK AO2
KMTV 251116Z AUTO 00000KT 1SM BR OVC003 18/18 A3027 RMK AO2
KMTV 251056Z AUTO 00000KT 1SM BR OVC003 18/18 A3026 RMK AO2
KMTV 251037Z AUTO 00000KT 3/4SM BR OVC003 18/18 A3026 RMK AO2
KMTV 251016Z AUTO 00000KT 3/4SM BR OVC003 18/18 A3026 RMK AO2
KMTV 250957Z AUTO 00000KT 3/4SM BR OVC003 18/18 A3026 RMK AO2
KMTV 250937Z AUTO 00000KT 3/4SM BR OVC003 18/18 A3025 RMK AO2
KMTV 250916Z AUTO 00000KT 3/4SM BR OVC003 18/18 A3026 RMK AO2
KMTV 250857Z AUTO 00000KT 3/4SM BR OVC003 18/18 A3026 RMK AO2
KMTV 250836Z AUTO 00000KT 3/4SM BR OVC003 18/18 A3026 RMK AO2
KMTV 250816Z AUTO 00000KT 3/4SM BR OVC003 18/18 A3026 RMK AO2
KMTV 250756Z AUTO 00000KT 1SM BR OVC003 18/18 A3028 RMK AO2
KMTV 250737Z AUTO 00000KT 3/4SM BR OVC003 18/18 A3028 RMK AO2
KMTV 250716Z AUTO 00000KT 3/4SM BR OVC003 18/18 A3028 RMK AO2
KMTV 250637Z AUTO 00000KT 1 1/4SM BR OVC003 18/18 A3029 RMK AO2
KMTV 250616Z AUTO 00000KT 1SM BR OVC003 18/18 A3029 RMK AO2
KMTV 250556Z AUTO 00000KT 1 1/4SM BR OVC003 18/18 A3030 RMK AO2
KMTV 250536Z AUTO 00000KT 1 3/4SM BR OVC003 18/18 A3030 RMK AO2
KMTV 250516Z AUTO 00000KT 2SM BR OVC003 18/18 A3031 RMK AO2
KMTV 250456Z AUTO 00000KT 2 1/2SM BR OVC003 18/18 A3031 RMK AO2
KMTV 250436Z AUTO 00000KT 7SM OVC005 18/18 A3031 RMK AO2
KMTV 250416Z AUTO 00000KT 10SM OVC005 18/18 A3032 RMK AO2
KMTV 250357Z AUTO 00000KT 10SM OVC005 18/18 A3032 RMK AO2
KMTV 250336Z AUTO 00000KT 10SM OVC005 18/18 A3033 RMK AO2
KMTV 250318Z AUTO 00000KT 10SM OVC005 18/18 A3032 RMK AO2
KMTV 250256Z AUTO 00000KT 10SM OVC005 18/18 A3032 RMK AO2
KMTV 250236Z AUTO 00000KT 10SM OVC005 18/18 A3031 RMK AO2
KMTV 250216Z AUTO 00000KT 10SM OVC005 18/18 A3032 RMK AO2
KMTV 250136Z AUTO 03003KT 10SM OVC003 18/18 A3031 RMK AO2
KMTV 250116Z AUTO 00000KT 7SM OVC003 18/18 A3031 RMK AO2
KMTV 250056Z AUTO 00000KT 4SM BR OVC003 18/18 A3031 RMK AO2
KMTV 250036Z AUTO 00000KT 3SM BR OVC003 18/18 A3031 RMK AO2
KMTV 250016Z AUTO 00000KT 2 1/2SM BR OVC005 18/18 A3030 RMK AO2
KMTV 242356Z AUTO 00000KT 2 1/2SM BR OVC005 18/18 A3030 RMK AO2
KMTV 242336Z AUTO 00000KT 2 1/2SM BR OVC005 18/18 A3030 RMK AO2
KMTV 242316Z AUTO 00000KT 2 1/2SM BR OVC005 18/18 A3030 RMK AO2